Airfield :
LOGIN :

Register | Disclaimer

   EN    FR    IT 

 










Legend :    VFR   Marginal VFR   IFR   Intensive IFR   Very Intensive IFR
Visi :
Ceiling :
>= 8 km
>= 3000ft
5 to 8 km
1000 to 3000 ft
1500m to 5 km
500 to 1000 ft
800 to 1500m
200 to 500 ft
< 800m
< 200 ft
Symbols :   Thunderstorms  Fog  Heavy snow  Heavy precipitations  Wind > 20 kt
SIGMETs :     Misc.  Thunderstorms  Icing  Turbulence  Mountain Waves  Volcanic Ashes






- Airport Elevation : 270 ft
- IATA code : OXF


EGTK - Oxford (Kidlington)

CURRENT METAR :
  • 240850Z 10005KT 0350 R19/0750 +SN OVC001 M01/M01 Q0995

EXPIRED METARs :
  • 240820Z 11003KT 2000 SN BKN010 OVC018 M01/M02 Q0995
  • 240750Z 10004KT 9999 FEW020 SCT028 BKN037 M01/M02 Q0995
  • 240720Z 10005KT 9999 FEW035 SCT041 M01/M02 Q0996
  • 240650Z 09004KT CAVOK M02/M02 Q0996
  • 240620Z 10004KT CAVOK M02/M03 Q0996

TAF AMD TAF EGTK
Valid from the 24 at 09:00 until the 24 at 18:00 UTC


240857Z 2409/2418 10005KT 9999 SCT030
BECMG 2409/2412 36010KT
TEMPO 2409/2412 0300 +SN BKN001
PROB40
TEMPO 2412/2418 1500 SN BKN003



MET'MAP, your aeronautical weather chart ! - Copyright ORBIFLY December 2007 - Disclaimer

ORBIFLY MET'MAP TEAM :

Programming & Development : Alexandra Zaïnal
Concept & original design : Baudouin d'Aumeries
Assistance for programming : Marc-Olivier Méhu
Technical & hardware support : Manuel Goepfert

Contact : metmap@orbifly.com




SOURCES & CREDITS :

   NOAA